Cartersburg, Indiana
Current Conditions -  °F | °C
As of 9:54 AM on Friday 19 Dec 2014 (Local Time) from KIND Reporting Station
Haze Haze  
Wind Chill: 23°   Ceiling: 2800
Heat Index: 23°   Visibility: 6mi
Dew Point: 19°   Wind: 3mph
Humidity: 85%   Direction: 310°NW
Pressure: 30.3"   Gusts: NA
Location:  39.7°N, 86.46°W
Report Text: KIND 191454Z 31003KT 6SM BR OVC028 M05/M07 A3030 RMK AO2 SLP270 T10501072 53008
Loading
Personal Weather Stations






























Interactive Weather Map New forecast layout! Learn more

10-Day Weather Forecast

Advertisements
Track Severe Weather on mobile